首页
METAR-TAF:

METAR-TAF

机场 :

DuBois / Falls Creek, 宾夕法尼亚州, 美国

纬度: 41-11N, 经度: 078-54W, 海拔: 555米

当前天气观测

该预报发布于30分钟前的21:09 UTC
风速9节,风向西
温度 -1°C
湿度 86%
气压 998 hPa
能見度: 4.0公里
多云层高于1000英尺
多云层高于2300英尺
阴天层高于3500英尺
小雪, 轻雾

METAR: KDUJ 162109Z AUTO 28009KT 2 1/2SM -SN BR BKN010 BKN023 OVC035 M01/M03 A2947 RMK AO2 P0000 T10061028

时间: 16:39 (21:39 UTC)

预报

该预报发布于4小时和15分钟前的17:24 UTC
预报有效从16日的 18点(UTC)到 17日的 18点(UTC)
风速6节,风向西
能見度: 10公里
阴天层高于1000英尺
附近有阵雨
从 16日的 2200点(UTC)
风速6节,风向西
能見度: 10公里
多云层高于1500英尺
附近有阵雨
从 17日的 0100点(UTC)
风速8节,风向西,有时为16节阵风
能見度: 10公里
多云层高于1000英尺
附近有阵雨
从 17日的 1400点(UTC)
风速10节,风向西,有时为20节阵风
能見度: 10公里
多云层高于1500英尺

TAF: KDUJ 161724Z 1618/1718 27006KT P6SM VCSH OVC010 FM162200 27006KT P6SM VCSH BKN015 FM170100 27008G16KT P6SM VCSH BKN010 FM171400 26010G20KT P6SM BKN015

超过4000个机场的气象观测和天气预报(METAR&TAF报告)。

可查询的气象台以黄色和红色小点在地图上表示。

将鼠标移到小点上方,可查看气象台名称。

然后点击查看天气观测和预报。

如需切换地图:点击带黑十字的绿色按钮放大地图;点击带横线的绿色按钮缩小地图;或者点击绿色箭头查看邻近地区的地图。


METAR-TAF: